Terminal Aerodrome Forecast
Issued by NWS

Home | Current Version | Previous Version | Text Only | Print | Product List | Glossary On
Versions: 1 2 3 4 5 6 7 8 9 10 11 12 13 14 15 16 17 18
912
FTAK31 PAJN 262326
TAFAGY
TAF
PAGY 262326Z 2700/2724 VRB04KT P6SM FEW004 SCT015 OVC060
      TEMPO 2700/2704 6SM -SHRA FEW004 BKN015 OVC040
     FM270400 20008KT P6SM SCT025 OVC050
     FM271600 21008KT P6SM BKN025 OVC050
      AMD LTD TO CLD VIS AND WIND=

USA.gov is the U.S. government's official web portal to all federal, state and local government web resources and services.